sensor_id;sensor_type;location;lat;lon;timestamp;temperature;humidity
18884;DHT22;9574;47.282;9.640;2023-07-20T00:01:51;21.90;99.90
18884;DHT22;9574;47.282;9.640;2023-07-20T00:04:18;22.00;99.90
18884;DHT22;9574;47.282;9.640;2023-07-20T00:06:46;21.90;99.90
18884;DHT22;9574;47.282;9.640;2023-07-20T00:09:13;21.90;99.90
18884;DHT22;9574;47.282;9.640;2023-07-20T00:11:47;21.90;99.90
18884;DHT22;9574;47.282;9.640;2023-07-20T00:14:14;21.90;99.90
18884;DHT22;9574;47.282;9.640;2023-07-20T00:16:41;21.90;99.90
18884;DHT22;9574;47.282;9.640;2023-07-20T00:19:08;21.80;99.90
18884;DHT22;9574;47.282;9.640;2023-07-20T00:21:36;21.80;99.90
18884;DHT22;9574;47.282;9.640;2023-07-20T00:24:07;21.80;99.90
18884;DHT22;9574;47.282;9.640;2023-07-20T00:26:34;21.80;99.90
18884;DHT22;9574;47.282;9.640;2023-07-20T00:29:01;21.80;99.90
18884;DHT22;9574;47.282;9.640;2023-07-20T00:31:29;21.90;99.90
18884;DHT22;9574;47.282;9.640;2023-07-20T00:33:56;22.00;99.90
18884;DHT22;9574;47.282;9.640;2023-07-20T00:36:23;22.00;99.90
18884;DHT22;9574;47.282;9.640;2023-07-20T00:38:50;21.90;99.90
18884;DHT22;9574;47.282;9.640;2023-07-20T00:41:18;21.90;99.90
18884;DHT22;9574;47.282;9.640;2023-07-20T00:43:45;21.90;99.90
18884;DHT22;9574;47.282;9.640;2023-07-20T00:46:12;21.80;99.90
18884;DHT22;9574;47.282;9.640;2023-07-20T00:48:40;21.80;99.90
18884;DHT22;9574;47.282;9.640;2023-07-20T00:51:08;21.70;99.90
18884;DHT22;9574;47.282;9.640;2023-07-20T00:53:35;21.70;99.90
18884;DHT22;9574;47.282;9.640;2023-07-20T00:56:02;21.70;99.90
18884;DHT22;9574;47.282;9.640;2023-07-20T00:58:32;21.80;99.90
18884;DHT22;9574;47.282;9.640;2023-07-20T01:00:59;21.80;99.90
18884;DHT22;9574;47.282;9.640;2023-07-20T01:03:26;21.80;99.90
18884;DHT22;9574;47.282;9.640;2023-07-20T01:05:57;21.80;99.90
18884;DHT22;9574;47.282;9.640;2023-07-20T01:08:33;21.80;99.90
18884;DHT22;9574;47.282;9.640;2023-07-20T01:11:13;21.80;99.90
18884;DHT22;9574;47.282;9.640;2023-07-20T01:13:44;21.80;99.90
18884;DHT22;9574;47.282;9.640;2023-07-20T01:16:11;21.90;99.90
18884;DHT22;9574;47.282;9.640;2023-07-20T01:18:38;21.80;99.90
18884;DHT22;9574;47.282;9.640;2023-07-20T01:21:09;21.80;99.90
18884;DHT22;9574;47.282;9.640;2023-07-20T01:26:53;21.70;99.90
18884;DHT22;9574;47.282;9.640;2023-07-20T01:29:50;21.70;99.90
18884;DHT22;9574;47.282;9.640;2023-07-20T01:32:24;21.80;99.90
18884;DHT22;9574;47.282;9.640;2023-07-20T01:34:52;21.90;99.90
18884;DHT22;9574;47.282;9.640;2023-07-20T01:37:21;22.20;99.90
18884;DHT22;9574;47.282;9.640;2023-07-20T01:39:52;22.60;99.90
18884;DHT22;9574;47.282;9.640;2023-07-20T01:42:21;22.60;99.90
18884;DHT22;9574;47.282;9.640;2023-07-20T01:44:50;22.50;99.90
18884;DHT22;9574;47.282;9.640;2023-07-20T01:47:18;22.20;99.90
18884;DHT22;9574;47.282;9.640;2023-07-20T01:49:46;22.00;99.90
18884;DHT22;9574;47.282;9.640;2023-07-20T01:52:13;21.90;99.90
18884;DHT22;9574;47.282;9.640;2023-07-20T01:54:41;21.90;99.90
18884;DHT22;9574;47.282;9.640;2023-07-20T01:57:08;21.80;99.90
18884;DHT22;9574;47.282;9.640;2023-07-20T01:59:35;21.90;99.90
18884;DHT22;9574;47.282;9.640;2023-07-20T02:02:02;21.90;99.90
18884;DHT22;9574;47.282;9.640;2023-07-20T02:04:29;22.20;99.90
18884;DHT22;9574;47.282;9.640;2023-07-20T02:06:57;22.20;99.90
18884;DHT22;9574;47.282;9.640;2023-07-20T02:09:25;22.10;99.90
18884;DHT22;9574;47.282;9.640;2023-07-20T02:11:52;22.10;99.90
18884;DHT22;9574;47.282;9.640;2023-07-20T02:14:19;22.20;99.90
18884;DHT22;9574;47.282;9.640;2023-07-20T02:16:48;22.10;99.90
18884;DHT22;9574;47.282;9.640;2023-07-20T02:19:17;21.90;99.90
18884;DHT22;9574;47.282;9.640;2023-07-20T02:21:45;21.90;99.90
18884;DHT22;9574;47.282;9.640;2023-07-20T02:24:13;22.10;99.90
18884;DHT22;9574;47.282;9.640;2023-07-20T02:26:40;22.30;99.90
18884;DHT22;9574;47.282;9.640;2023-07-20T02:29:07;22.50;99.90
18884;DHT22;9574;47.282;9.640;2023-07-20T02:31:37;22.60;99.90
18884;DHT22;9574;47.282;9.640;2023-07-20T02:34:04;22.80;99.90
18884;DHT22;9574;47.282;9.640;2023-07-20T02:36:31;22.80;99.90
18884;DHT22;9574;47.282;9.640;2023-07-20T02:38:59;22.80;99.90
18884;DHT22;9574;47.282;9.640;2023-07-20T02:41:29;22.50;99.90
18884;DHT22;9574;47.282;9.640;2023-07-20T02:43:56;22.20;99.90
18884;DHT22;9574;47.282;9.640;2023-07-20T02:46:23;22.00;99.90
18884;DHT22;9574;47.282;9.640;2023-07-20T02:48:50;21.90;99.90
18884;DHT22;9574;47.282;9.640;2023-07-20T02:51:17;21.90;99.90
18884;DHT22;9574;47.282;9.640;2023-07-20T02:53:44;21.90;99.90
18884;DHT22;9574;47.282;9.640;2023-07-20T02:56:11;21.90;99.90
18884;DHT22;9574;47.282;9.640;2023-07-20T02:58:41;21.90;99.90
18884;DHT22;9574;47.282;9.640;2023-07-20T03:01:11;21.90;99.90
18884;DHT22;9574;47.282;9.640;2023-07-20T03:03:38;21.80;99.90
18884;DHT22;9574;47.282;9.640;2023-07-20T03:06:05;21.90;99.90
18884;DHT22;9574;47.282;9.640;2023-07-20T03:08:34;22.10;99.90
18884;DHT22;9574;47.282;9.640;2023-07-20T03:11:01;22.20;99.90
18884;DHT22;9574;47.282;9.640;2023-07-20T03:13:28;22.30;99.90
18884;DHT22;9574;47.282;9.640;2023-07-20T03:15:56;22.40;99.90
18884;DHT22;9574;47.282;9.640;2023-07-20T03:18:23;22.50;99.90
18884;DHT22;9574;47.282;9.640;2023-07-20T03:20:50;22.50;99.90
18884;DHT22;9574;47.282;9.640;2023-07-20T03:23:17;22.60;99.90
18884;DHT22;9574;47.282;9.640;2023-07-20T03:25:44;22.60;99.90
18884;DHT22;9574;47.282;9.640;2023-07-20T03:28:11;22.60;99.90
18884;DHT22;9574;47.282;9.640;2023-07-20T03:30:38;22.60;99.90
18884;DHT22;9574;47.282;9.640;2023-07-20T03:33:07;22.50;99.90
18884;DHT22;9574;47.282;9.640;2023-07-20T03:35:33;22.50;99.90
18884;DHT22;9574;47.282;9.640;2023-07-20T03:38:00;22.50;99.90
18884;DHT22;9574;47.282;9.640;2023-07-20T03:40:27;22.50;99.90
18884;DHT22;9574;47.282;9.640;2023-07-20T03:42:54;22.40;99.90
18884;DHT22;9574;47.282;9.640;2023-07-20T03:45:21;22.40;99.90
18884;DHT22;9574;47.282;9.640;2023-07-20T03:47:49;22.40;99.90
18884;DHT22;9574;47.282;9.640;2023-07-20T03:50:18;22.30;99.90
18884;DHT22;9574;47.282;9.640;2023-07-20T03:52:44;22.40;99.90
18884;DHT22;9574;47.282;9.640;2023-07-20T03:55:11;22.00;99.90
18884;DHT22;9574;47.282;9.640;2023-07-20T03:57:38;21.60;99.90
18884;DHT22;9574;47.282;9.640;2023-07-20T04:00:07;21.40;99.90
18884;DHT22;9574;47.282;9.640;2023-07-20T04:02:34;21.20;99.90
18884;DHT22;9574;47.282;9.640;2023-07-20T04:05:01;21.10;99.90
18884;DHT22;9574;47.282;9.640;2023-07-20T04:07:30;21.30;99.90
18884;DHT22;9574;47.282;9.640;2023-07-20T04:09:56;21.10;99.90
18884;DHT22;9574;47.282;9.640;2023-07-20T04:12:23;21.00;99.90
18884;DHT22;9574;47.282;9.640;2023-07-20T04:14:50;20.90;99.90
18884;DHT22;9574;47.282;9.640;2023-07-20T04:17:18;20.90;99.90
18884;DHT22;9574;47.282;9.640;2023-07-20T04:19:45;20.70;99.90
18884;DHT22;9574;47.282;9.640;2023-07-20T04:22:12;20.80;99.90
18884;DHT22;9574;47.282;9.640;2023-07-20T04:24:42;20.70;99.90
18884;DHT22;9574;47.282;9.640;2023-07-20T04:27:09;20.70;99.90
18884;DHT22;9574;47.282;9.640;2023-07-20T04:29:36;20.60;99.90
18884;DHT22;9574;47.282;9.640;2023-07-20T04:32:03;20.60;99.90
18884;DHT22;9574;47.282;9.640;2023-07-20T04:34:30;20.60;99.90
18884;DHT22;9574;47.282;9.640;2023-07-20T04:36:57;20.50;99.90
18884;DHT22;9574;47.282;9.640;2023-07-20T04:39:24;20.50;99.90
18884;DHT22;9574;47.282;9.640;2023-07-20T04:41:52;20.50;99.90
18884;DHT22;9574;47.282;9.640;2023-07-20T04:44:19;20.80;99.90
18884;DHT22;9574;47.282;9.640;2023-07-20T04:46:46;20.90;99.90
18884;DHT22;9574;47.282;9.640;2023-07-20T04:49:13;20.90;99.90
18884;DHT22;9574;47.282;9.640;2023-07-20T04:51:40;20.90;99.90
18884;DHT22;9574;47.282;9.640;2023-07-20T04:54:07;21.00;99.90
18884;DHT22;9574;47.282;9.640;2023-07-20T04:56:34;21.10;99.90
18884;DHT22;9574;47.282;9.640;2023-07-20T04:59:02;21.10;99.90
18884;DHT22;9574;47.282;9.640;2023-07-20T05:01:29;21.00;99.90
18884;DHT22;9574;47.282;9.640;2023-07-20T05:03:56;21.00;99.90
18884;DHT22;9574;47.282;9.640;2023-07-20T05:06:23;20.80;99.90
18884;DHT22;9574;47.282;9.640;2023-07-20T05:08:51;21.00;99.90
18884;DHT22;9574;47.282;9.640;2023-07-20T05:11:18;21.10;99.90
18884;DHT22;9574;47.282;9.640;2023-07-20T05:13:45;21.10;99.90
18884;DHT22;9574;47.282;9.640;2023-07-20T05:16:13;21.40;99.90
18884;DHT22;9574;47.282;9.640;2023-07-20T05:18:40;21.60;99.90
18884;DHT22;9574;47.282;9.640;2023-07-20T05:21:07;21.70;99.90
18884;DHT22;9574;47.282;9.640;2023-07-20T05:23:34;21.70;99.90
18884;DHT22;9574;47.282;9.640;2023-07-20T05:26:01;21.80;99.90
18884;DHT22;9574;47.282;9.640;2023-07-20T05:28:28;21.80;99.90
18884;DHT22;9574;47.282;9.640;2023-07-20T05:30:55;21.80;99.90
18884;DHT22;9574;47.282;9.640;2023-07-20T05:33:26;21.80;99.90
18884;DHT22;9574;47.282;9.640;2023-07-20T05:35:53;21.80;99.90
18884;DHT22;9574;47.282;9.640;2023-07-20T05:38:20;21.80;99.90
18884;DHT22;9574;47.282;9.640;2023-07-20T05:40:47;21.80;99.90
18884;DHT22;9574;47.282;9.640;2023-07-20T05:43:14;21.70;99.90
18884;DHT22;9574;47.282;9.640;2023-07-20T05:45:41;21.70;99.90
18884;DHT22;9574;47.282;9.640;2023-07-20T05:48:09;21.60;99.90
18884;DHT22;9574;47.282;9.640;2023-07-20T05:50:41;21.60;99.90
18884;DHT22;9574;47.282;9.640;2023-07-20T05:53:08;21.60;99.90
18884;DHT22;9574;47.282;9.640;2023-07-20T05:55:35;21.50;99.90
18884;DHT22;9574;47.282;9.640;2023-07-20T05:58:02;21.60;99.90
18884;DHT22;9574;47.282;9.640;2023-07-20T06:00:29;21.70;99.90
18884;DHT22;9574;47.282;9.640;2023-07-20T06:02:56;21.80;99.90
18884;DHT22;9574;47.282;9.640;2023-07-20T06:05:23;21.80;99.90
18884;DHT22;9574;47.282;9.640;2023-07-20T06:07:51;21.80;99.90
18884;DHT22;9574;47.282;9.640;2023-07-20T06:10:20;21.80;99.90
18884;DHT22;9574;47.282;9.640;2023-07-20T06:12:47;21.80;99.90
18884;DHT22;9574;47.282;9.640;2023-07-20T06:15:27;21.90;99.90
18884;DHT22;9574;47.282;9.640;2023-07-20T06:17:55;22.10;99.90
18884;DHT22;9574;47.282;9.640;2023-07-20T06:20:23;22.10;99.90
18884;DHT22;9574;47.282;9.640;2023-07-20T06:22:52;22.10;99.90
18884;DHT22;9574;47.282;9.640;2023-07-20T06:25:19;22.20;99.90
18884;DHT22;9574;47.282;9.640;2023-07-20T06:27:46;22.30;99.90
18884;DHT22;9574;47.282;9.640;2023-07-20T06:30:13;22.40;99.90
18884;DHT22;9574;47.282;9.640;2023-07-20T06:32:40;22.50;99.90
18884;DHT22;9574;47.282;9.640;2023-07-20T06:35:07;22.50;99.90
18884;DHT22;9574;47.282;9.640;2023-07-20T06:37:34;22.40;99.90
18884;DHT22;9574;47.282;9.640;2023-07-20T06:40:04;22.40;99.90
18884;DHT22;9574;47.282;9.640;2023-07-20T06:42:31;22.40;99.90
18884;DHT22;9574;47.282;9.640;2023-07-20T06:44:58;22.50;99.90
18884;DHT22;9574;47.282;9.640;2023-07-20T06:47:25;22.50;99.90
18884;DHT22;9574;47.282;9.640;2023-07-20T06:49:52;22.50;99.90
18884;DHT22;9574;47.282;9.640;2023-07-20T06:52:19;22.40;99.90
18884;DHT22;9574;47.282;9.640;2023-07-20T06:54:46;22.30;99.90
18884;DHT22;9574;47.282;9.640;2023-07-20T06:57:14;22.40;99.90
18884;DHT22;9574;47.282;9.640;2023-07-20T06:59:41;22.40;99.90
18884;DHT22;9574;47.282;9.640;2023-07-20T07:02:08;22.50;99.90
18884;DHT22;9574;47.282;9.640;2023-07-20T07:04:35;22.50;99.90
18884;DHT22;9574;47.282;9.640;2023-07-20T07:07:02;22.60;99.90
18884;DHT22;9574;47.282;9.640;2023-07-20T07:09:30;22.70;99.90
18884;DHT22;9574;47.282;9.640;2023-07-20T07:11:57;22.80;99.90
18884;DHT22;9574;47.282;9.640;2023-07-20T07:14:25;22.80;99.90
18884;DHT22;9574;47.282;9.640;2023-07-20T07:16:52;22.90;99.90
18884;DHT22;9574;47.282;9.640;2023-07-20T07:19:19;23.00;99.90
18884;DHT22;9574;47.282;9.640;2023-07-20T07:21:46;23.00;99.90
18884;DHT22;9574;47.282;9.640;2023-07-20T07:24:13;23.10;99.90
18884;DHT22;9574;47.282;9.640;2023-07-20T07:26:40;23.10;99.90
18884;DHT22;9574;47.282;9.640;2023-07-20T07:29:07;23.10;99.90
18884;DHT22;9574;47.282;9.640;2023-07-20T07:31:36;23.20;99.90
18884;DHT22;9574;47.282;9.640;2023-07-20T07:34:04;23.10;99.90
18884;DHT22;9574;47.282;9.640;2023-07-20T07:36:31;23.20;99.90
18884;DHT22;9574;47.282;9.640;2023-07-20T07:38:58;23.30;99.90
18884;DHT22;9574;47.282;9.640;2023-07-20T07:41:25;23.30;99.90
18884;DHT22;9574;47.282;9.640;2023-07-20T07:43:52;23.30;99.90
18884;DHT22;9574;47.282;9.640;2023-07-20T07:46:19;23.50;99.90
18884;DHT22;9574;47.282;9.640;2023-07-20T07:48:47;23.60;99.90
18884;DHT22;9574;47.282;9.640;2023-07-20T07:51:14;23.70;99.90
18884;DHT22;9574;47.282;9.640;2023-07-20T07:53:41;23.80;99.90
18884;DHT22;9574;47.282;9.640;2023-07-20T07:56:09;23.90;99.90
18884;DHT22;9574;47.282;9.640;2023-07-20T07:58:36;23.80;99.90
18884;DHT22;9574;47.282;9.640;2023-07-20T08:01:03;23.80;99.90
18884;DHT22;9574;47.282;9.640;2023-07-20T08:03:30;23.80;99.90
18884;DHT22;9574;47.282;9.640;2023-07-20T08:05:58;23.80;99.90
18884;DHT22;9574;47.282;9.640;2023-07-20T08:08:26;23.90;99.90
18884;DHT22;9574;47.282;9.640;2023-07-20T08:10:53;23.90;99.90
18884;DHT22;9574;47.282;9.640;2023-07-20T08:13:21;23.70;99.90
18884;DHT22;9574;47.282;9.640;2023-07-20T08:15:50;23.80;99.90
18884;DHT22;9574;47.282;9.640;2023-07-20T08:18:17;24.00;99.90
18884;DHT22;9574;47.282;9.640;2023-07-20T08:20:45;24.20;99.90
18884;DHT22;9574;47.282;9.640;2023-07-20T08:23:13;24.30;99.90
18884;DHT22;9574;47.282;9.640;2023-07-20T08:25:40;24.50;99.90
18884;DHT22;9574;47.282;9.640;2023-07-20T08:28:10;24.70;99.90
18884;DHT22;9574;47.282;9.640;2023-07-20T08:30:41;24.90;99.90
18884;DHT22;9574;47.282;9.640;2023-07-20T08:33:09;25.10;99.90
18884;DHT22;9574;47.282;9.640;2023-07-20T08:35:36;25.00;99.90
18884;DHT22;9574;47.282;9.640;2023-07-20T08:38:03;25.10;99.90
18884;DHT22;9574;47.282;9.640;2023-07-20T08:40:32;25.10;99.90
18884;DHT22;9574;47.282;9.640;2023-07-20T08:43:00;25.20;99.90
18884;DHT22;9574;47.282;9.640;2023-07-20T08:45:27;25.30;99.90
18884;DHT22;9574;47.282;9.640;2023-07-20T08:47:56;25.30;99.90
18884;DHT22;9574;47.282;9.640;2023-07-20T08:50:25;25.30;99.90
18884;DHT22;9574;47.282;9.640;2023-07-20T08:52:57;25.30;99.90
18884;DHT22;9574;47.282;9.640;2023-07-20T08:55:26;25.30;99.90
18884;DHT22;9574;47.282;9.640;2023-07-20T08:57:55;25.60;99.90
18884;DHT22;9574;47.282;9.640;2023-07-20T09:00:23;25.70;99.90
18884;DHT22;9574;47.282;9.640;2023-07-20T09:02:52;25.80;99.90
18884;DHT22;9574;47.282;9.640;2023-07-20T09:05:20;26.00;99.90
18884;DHT22;9574;47.282;9.640;2023-07-20T09:07:47;26.00;99.90
18884;DHT22;9574;47.282;9.640;2023-07-20T09:10:14;26.00;99.90
18884;DHT22;9574;47.282;9.640;2023-07-20T09:12:43;26.30;99.90
18884;DHT22;9574;47.282;9.640;2023-07-20T09:15:12;26.40;99.90
18884;DHT22;9574;47.282;9.640;2023-07-20T09:17:39;26.40;99.90
18884;DHT22;9574;47.282;9.640;2023-07-20T09:20:07;26.40;99.90
18884;DHT22;9574;47.282;9.640;2023-07-20T09:22:36;26.40;99.90
18884;DHT22;9574;47.282;9.640;2023-07-20T09:25:06;26.30;99.90
18884;DHT22;9574;47.282;9.640;2023-07-20T09:27:37;26.30;99.90
18884;DHT22;9574;47.282;9.640;2023-07-20T09:30:05;26.20;99.90
18884;DHT22;9574;47.282;9.640;2023-07-20T09:32:40;26.20;99.90
18884;DHT22;9574;47.282;9.640;2023-07-20T09:35:13;26.20;99.90
18884;DHT22;9574;47.282;9.640;2023-07-20T09:37:46;26.20;99.90
18884;DHT22;9574;47.282;9.640;2023-07-20T09:40:15;26.30;99.90
18884;DHT22;9574;47.282;9.640;2023-07-20T09:42:43;26.60;99.90
18884;DHT22;9574;47.282;9.640;2023-07-20T09:45:11;26.80;99.90
18884;DHT22;9574;47.282;9.640;2023-07-20T09:47:39;26.70;99.90
18884;DHT22;9574;47.282;9.640;2023-07-20T09:50:08;26.80;99.90
18884;DHT22;9574;47.282;9.640;2023-07-20T09:52:39;26.90;99.90
18884;DHT22;9574;47.282;9.640;2023-07-20T09:55:07;26.90;99.90
18884;DHT22;9574;47.282;9.640;2023-07-20T09:57:35;26.80;99.90
18884;DHT22;9574;47.282;9.640;2023-07-20T10:00:04;27.00;99.90
18884;DHT22;9574;47.282;9.640;2023-07-20T10:02:43;27.10;99.90
18884;DHT22;9574;47.282;9.640;2023-07-20T10:05:12;27.10;99.90
18884;DHT22;9574;47.282;9.640;2023-07-20T10:07:44;27.20;99.90
18884;DHT22;9574;47.282;9.640;2023-07-20T10:10:14;27.40;99.90
18884;DHT22;9574;47.282;9.640;2023-07-20T10:12:44;27.50;99.90
18884;DHT22;9574;47.282;9.640;2023-07-20T10:15:18;27.50;99.90
18884;DHT22;9574;47.282;9.640;2023-07-20T10:17:59;27.40;99.90
18884;DHT22;9574;47.282;9.640;2023-07-20T10:20:27;27.50;99.90
18884;DHT22;9574;47.282;9.640;2023-07-20T10:22:56;27.60;99.90
18884;DHT22;9574;47.282;9.640;2023-07-20T10:25:23;27.60;99.90
18884;DHT22;9574;47.282;9.640;2023-07-20T10:27:51;27.80;99.90
18884;DHT22;9574;47.282;9.640;2023-07-20T10:30:18;27.90;99.90
18884;DHT22;9574;47.282;9.640;2023-07-20T10:32:46;28.00;99.90
18884;DHT22;9574;47.282;9.640;2023-07-20T10:35:16;27.80;99.90
18884;DHT22;9574;47.282;9.640;2023-07-20T10:37:53;27.90;99.90
18884;DHT22;9574;47.282;9.640;2023-07-20T10:40:25;28.00;99.90
18884;DHT22;9574;47.282;9.640;2023-07-20T10:42:57;28.00;99.90
18884;DHT22;9574;47.282;9.640;2023-07-20T10:45:36;28.20;99.90
18884;DHT22;9574;47.282;9.640;2023-07-20T10:48:09;28.50;99.90
18884;DHT22;9574;47.282;9.640;2023-07-20T10:50:41;28.50;99.90
18884;DHT22;9574;47.282;9.640;2023-07-20T10:53:13;28.40;99.90
18884;DHT22;9574;47.282;9.640;2023-07-20T10:55:41;28.30;99.90
18884;DHT22;9574;47.282;9.640;2023-07-20T10:58:10;28.30;99.90
18884;DHT22;9574;47.282;9.640;2023-07-20T11:00:39;28.40;99.90
18884;DHT22;9574;47.282;9.640;2023-07-20T11:03:27;28.30;99.90
18884;DHT22;9574;47.282;9.640;2023-07-20T11:05:56;28.50;99.90
18884;DHT22;9574;47.282;9.640;2023-07-20T11:08:38;28.60;99.90
18884;DHT22;9574;47.282;9.640;2023-07-20T11:11:22;28.60;99.90
18884;DHT22;9574;47.282;9.640;2023-07-20T11:13:57;28.50;99.90
18884;DHT22;9574;47.282;9.640;2023-07-20T11:16:34;28.50;99.90
18884;DHT22;9574;47.282;9.640;2023-07-20T11:19:02;28.70;99.90
18884;DHT22;9574;47.282;9.640;2023-07-20T11:21:36;29.00;99.90
18884;DHT22;9574;47.282;9.640;2023-07-20T11:24:04;29.20;99.90
18884;DHT22;9574;47.282;9.640;2023-07-20T11:26:40;29.10;99.90
18884;DHT22;9574;47.282;9.640;2023-07-20T11:29:07;29.00;99.90
18884;DHT22;9574;47.282;9.640;2023-07-20T11:31:36;29.10;99.90
18884;DHT22;9574;47.282;9.640;2023-07-20T11:34:03;29.00;99.90
18884;DHT22;9574;47.282;9.640;2023-07-20T11:36:31;28.70;99.90
18884;DHT22;9574;47.282;9.640;2023-07-20T11:38:58;28.50;99.90
18884;DHT22;9574;47.282;9.640;2023-07-20T11:41:26;28.60;99.90
18884;DHT22;9574;47.282;9.640;2023-07-20T11:43:54;28.70;99.90
18884;DHT22;9574;47.282;9.640;2023-07-20T11:46:21;28.90;99.90
18884;DHT22;9574;47.282;9.640;2023-07-20T11:48:48;29.30;99.90
18884;DHT22;9574;47.282;9.640;2023-07-20T11:51:16;29.60;99.90
18884;DHT22;9574;47.282;9.640;2023-07-20T11:53:46;29.60;99.90
18884;DHT22;9574;47.282;9.640;2023-07-20T11:56:13;29.50;99.90
18884;DHT22;9574;47.282;9.640;2023-07-20T11:58:44;29.40;99.90
18884;DHT22;9574;47.282;9.640;2023-07-20T12:01:12;29.40;99.90
18884;DHT22;9574;47.282;9.640;2023-07-20T12:03:39;29.10;99.90
18884;DHT22;9574;47.282;9.640;2023-07-20T12:06:07;28.80;99.90
18884;DHT22;9574;47.282;9.640;2023-07-20T12:08:34;28.70;99.90
18884;DHT22;9574;47.282;9.640;2023-07-20T12:11:03;28.60;99.90
18884;DHT22;9574;47.282;9.640;2023-07-20T12:13:37;28.80;99.90
18884;DHT22;9574;47.282;9.640;2023-07-20T12:16:09;29.00;99.90
18884;DHT22;9574;47.282;9.640;2023-07-20T12:18:37;29.00;99.90
18884;DHT22;9574;47.282;9.640;2023-07-20T12:21:06;29.00;99.90
18884;DHT22;9574;47.282;9.640;2023-07-20T12:23:37;29.10;99.90
18884;DHT22;9574;47.282;9.640;2023-07-20T12:26:08;29.20;99.90
18884;DHT22;9574;47.282;9.640;2023-07-20T12:28:39;29.10;99.90
18884;DHT22;9574;47.282;9.640;2023-07-20T12:31:07;28.80;99.90
18884;DHT22;9574;47.282;9.640;2023-07-20T12:33:35;28.80;99.90
18884;DHT22;9574;47.282;9.640;2023-07-20T12:36:02;28.90;99.90
18884;DHT22;9574;47.282;9.640;2023-07-20T12:38:29;28.70;99.90
18884;DHT22;9574;47.282;9.640;2023-07-20T12:40:57;28.60;99.90
18884;DHT22;9574;47.282;9.640;2023-07-20T12:43:27;28.70;99.90
18884;DHT22;9574;47.282;9.640;2023-07-20T12:45:55;29.00;99.90
18884;DHT22;9574;47.282;9.640;2023-07-20T12:48:22;29.00;99.90
18884;DHT22;9574;47.282;9.640;2023-07-20T12:50:49;29.10;99.90
18884;DHT22;9574;47.282;9.640;2023-07-20T12:53:16;29.30;99.90
18884;DHT22;9574;47.282;9.640;2023-07-20T12:55:43;29.10;99.90
18884;DHT22;9574;47.282;9.640;2023-07-20T12:58:11;29.00;99.90
18884;DHT22;9574;47.282;9.640;2023-07-20T13:00:40;29.10;99.90
18884;DHT22;9574;47.282;9.640;2023-07-20T13:03:07;29.00;99.90
18884;DHT22;9574;47.282;9.640;2023-07-20T13:05:34;29.10;99.90
18884;DHT22;9574;47.282;9.640;2023-07-20T13:08:02;28.80;99.90
18884;DHT22;9574;47.282;9.640;2023-07-20T13:10:30;29.00;99.90
18884;DHT22;9574;47.282;9.640;2023-07-20T13:12:57;29.10;99.90
18884;DHT22;9574;47.282;9.640;2023-07-20T13:15:29;29.10;99.90
18884;DHT22;9574;47.282;9.640;2023-07-20T13:17:59;29.30;99.90
18884;DHT22;9574;47.282;9.640;2023-07-20T13:20:26;29.40;99.90
18884;DHT22;9574;47.282;9.640;2023-07-20T13:22:53;29.50;99.90
18884;DHT22;9574;47.282;9.640;2023-07-20T13:25:21;29.20;99.90
18884;DHT22;9574;47.282;9.640;2023-07-20T13:27:48;29.40;99.90
18884;DHT22;9574;47.282;9.640;2023-07-20T13:30:15;29.60;99.90
18884;DHT22;9574;47.282;9.640;2023-07-20T13:32:43;29.60;99.90
18884;DHT22;9574;47.282;9.640;2023-07-20T13:35:11;29.60;99.90
18884;DHT22;9574;47.282;9.640;2023-07-20T13:37:39;29.80;99.90
18884;DHT22;9574;47.282;9.640;2023-07-20T13:40:07;29.80;99.90
18884;DHT22;9574;47.282;9.640;2023-07-20T13:42:37;29.70;99.90
18884;DHT22;9574;47.282;9.640;2023-07-20T13:45:06;29.70;99.90
18884;DHT22;9574;47.282;9.640;2023-07-20T13:47:34;29.70;99.90
18884;DHT22;9574;47.282;9.640;2023-07-20T13:50:01;29.90;99.90
18884;DHT22;9574;47.282;9.640;2023-07-20T13:52:29;30.00;99.90
18884;DHT22;9574;47.282;9.640;2023-07-20T13:54:56;30.00;99.90
18884;DHT22;9574;47.282;9.640;2023-07-20T13:57:23;30.00;99.90
18884;DHT22;9574;47.282;9.640;2023-07-20T13:59:50;30.00;99.90
18884;DHT22;9574;47.282;9.640;2023-07-20T14:02:17;29.80;99.90
18884;DHT22;9574;47.282;9.640;2023-07-20T14:04:44;29.70;99.90
18884;DHT22;9574;47.282;9.640;2023-07-20T14:07:11;29.70;99.90
18884;DHT22;9574;47.282;9.640;2023-07-20T14:09:39;29.80;99.90
18884;DHT22;9574;47.282;9.640;2023-07-20T14:12:07;29.80;99.90
18884;DHT22;9574;47.282;9.640;2023-07-20T14:14:36;29.80;99.90
18884;DHT22;9574;47.282;9.640;2023-07-20T14:17:04;29.80;99.90
18884;DHT22;9574;47.282;9.640;2023-07-20T14:19:31;29.80;99.90
18884;DHT22;9574;47.282;9.640;2023-07-20T14:21:58;29.90;99.90
18884;DHT22;9574;47.282;9.640;2023-07-20T14:24:25;30.00;99.90
18884;DHT22;9574;47.282;9.640;2023-07-20T14:26:54;29.90;99.90
18884;DHT22;9574;47.282;9.640;2023-07-20T14:29:21;29.80;99.90
18884;DHT22;9574;47.282;9.640;2023-07-20T14:31:48;29.70;99.90
18884;DHT22;9574;47.282;9.640;2023-07-20T14:34:16;29.80;99.90
18884;DHT22;9574;47.282;9.640;2023-07-20T14:36:44;29.90;99.90
18884;DHT22;9574;47.282;9.640;2023-07-20T14:39:11;29.70;99.90
18884;DHT22;9574;47.282;9.640;2023-07-20T14:41:38;29.60;99.90
18884;DHT22;9574;47.282;9.640;2023-07-20T14:44:06;29.50;99.90
18884;DHT22;9574;47.282;9.640;2023-07-20T14:46:35;29.50;99.90
18884;DHT22;9574;47.282;9.640;2023-07-20T14:49:02;29.50;99.90
18884;DHT22;9574;47.282;9.640;2023-07-20T14:51:29;29.50;99.90
18884;DHT22;9574;47.282;9.640;2023-07-20T14:53:58;29.60;99.90
18884;DHT22;9574;47.282;9.640;2023-07-20T14:56:26;29.60;99.90
18884;DHT22;9574;47.282;9.640;2023-07-20T14:58:53;29.70;99.90
18884;DHT22;9574;47.282;9.640;2023-07-20T15:01:21;29.70;99.90
18884;DHT22;9574;47.282;9.640;2023-07-20T15:03:48;29.60;99.90
18884;DHT22;9574;47.282;9.640;2023-07-20T15:06:18;29.60;99.90
18884;DHT22;9574;47.282;9.640;2023-07-20T15:08:46;29.20;99.90
18884;DHT22;9574;47.282;9.640;2023-07-20T15:11:13;29.30;99.90
18884;DHT22;9574;47.282;9.640;2023-07-20T15:13:40;29.50;99.90
18884;DHT22;9574;47.282;9.640;2023-07-20T15:16:08;29.40;99.90
18884;DHT22;9574;47.282;9.640;2023-07-20T15:18:37;29.40;99.90
18884;DHT22;9574;47.282;9.640;2023-07-20T15:21:04;29.60;99.90
18884;DHT22;9574;47.282;9.640;2023-07-20T15:23:31;29.30;99.90
18884;DHT22;9574;47.282;9.640;2023-07-20T15:25:58;29.40;99.90
18884;DHT22;9574;47.282;9.640;2023-07-20T15:28:25;29.60;99.90
18884;DHT22;9574;47.282;9.640;2023-07-20T15:30:59;29.40;99.90
18884;DHT22;9574;47.282;9.640;2023-07-20T15:33:27;29.30;99.90
18884;DHT22;9574;47.282;9.640;2023-07-20T15:35:55;29.30;99.90
18884;DHT22;9574;47.282;9.640;2023-07-20T15:38:22;29.40;99.90
18884;DHT22;9574;47.282;9.640;2023-07-20T15:40:49;29.50;99.90
18884;DHT22;9574;47.282;9.640;2023-07-20T15:43:16;29.50;99.90
18884;DHT22;9574;47.282;9.640;2023-07-20T15:46:01;29.40;99.90
18884;DHT22;9574;47.282;9.640;2023-07-20T15:48:37;29.40;99.90
18884;DHT22;9574;47.282;9.640;2023-07-20T15:51:06;29.30;99.90
18884;DHT22;9574;47.282;9.640;2023-07-20T15:53:33;29.20;99.90
18884;DHT22;9574;47.282;9.640;2023-07-20T15:56:00;29.10;99.90